Weather at Cañada Rosquin Airport

Public forecast

Using degrees Celsius for public forecast. Weather courtesy of forecast.io.

Closest aviation weather report (METAR) to Cañada Rosquin Airport

Closest report is Rosario Islas Malvinas International Airport, 63.0 nm (116.7 km) SE.

2024/06/19 03:00 (retrieved 29 minutes ago)

SAAR 190300Z 22001KT 9999 SCT033 BKN042 15/14 Q1008

Closest aviation forecast (TAF) to Cañada Rosquin Airport

Forecast is more than 6 hours old.

Closest forecast is Rubem Berta Airport, 272.3 nm (504.2 km) ENE.

2024/06/18 18:00 (retrieved 9 hours ago)

TAF SBUG 181500Z 1818/1906 06005KT 9999 SCT030 TX23/1818Z TN18/1906Z TEMPO 1820/1824 5000 TSRA BKN030 FEW035CB BECMG 1900/1902 8000 BKN015 RMK PEH